createdAt,value
2017-08-13T00:00:59.388Z,0
2017-08-13T00:01:59.961Z,0
2017-08-13T00:03:00.536Z,0
2017-08-13T00:04:01.122Z,0
2017-08-13T00:05:01.700Z,0
2017-08-13T00:06:02.273Z,0
2017-08-13T00:07:02.846Z,0
2017-08-13T00:08:03.430Z,0
2017-08-13T00:09:04.004Z,0
2017-08-13T00:10:04.576Z,0
2017-08-13T00:11:05.150Z,0
2017-08-13T00:12:05.730Z,0
2017-08-13T00:13:06.296Z,0
2017-08-13T00:14:06.880Z,0
2017-08-13T00:15:07.456Z,0
2017-08-13T00:16:08.029Z,0
2017-08-13T00:17:08.603Z,0
2017-08-13T00:18:09.178Z,0
2017-08-13T00:19:09.753Z,0
2017-08-13T00:20:10.325Z,0
2017-08-13T00:21:10.899Z,0
2017-08-13T00:22:11.473Z,0
2017-08-13T00:23:12.046Z,0
2017-08-13T00:24:12.620Z,0
2017-08-13T00:25:13.194Z,0
2017-08-13T00:26:13.766Z,0
2017-08-13T00:27:14.341Z,0
2017-08-13T00:28:14.914Z,0
2017-08-13T00:29:15.488Z,0
2017-08-13T00:30:16.060Z,0
2017-08-13T00:31:16.634Z,0
2017-08-13T00:32:17.208Z,0
2017-08-13T00:33:17.783Z,0
2017-08-13T00:34:18.355Z,0
2017-08-13T00:35:18.928Z,0
2017-08-13T00:36:19.502Z,0
2017-08-13T00:37:20.075Z,0
2017-08-13T00:38:20.648Z,0
2017-08-13T00:39:21.222Z,0
2017-08-13T00:40:21.795Z,0
2017-08-13T00:41:22.368Z,0
2017-08-13T00:42:22.942Z,0
2017-08-13T00:43:23.516Z,0
2017-08-13T00:44:24.088Z,0
2017-08-13T00:45:24.662Z,0
2017-08-13T00:46:25.235Z,0
2017-08-13T00:47:25.809Z,0
2017-08-13T00:48:26.382Z,0
2017-08-13T00:49:26.954Z,0
2017-08-13T00:50:27.527Z,0
2017-08-13T00:51:28.101Z,0
2017-08-13T00:52:28.673Z,0
2017-08-13T00:53:29.246Z,0
2017-08-13T00:54:29.821Z,0
2017-08-13T00:55:30.393Z,0
2017-08-13T00:56:30.967Z,0
2017-08-13T00:57:31.541Z,0
2017-08-13T00:58:32.114Z,0
2017-08-13T00:59:32.687Z,0
2017-08-13T01:00:33.259Z,0
2017-08-13T01:01:33.844Z,0
2017-08-13T01:02:34.418Z,0
2017-08-13T01:03:34.992Z,0
2017-08-13T01:04:35.570Z,0
2017-08-13T01:05:36.152Z,0
2017-08-13T01:06:36.725Z,0
2017-08-13T01:07:37.299Z,0
2017-08-13T01:08:37.871Z,0
2017-08-13T01:09:38.446Z,0
2017-08-13T01:10:39.018Z,0
2017-08-13T01:11:39.598Z,0
2017-08-13T01:12:40.180Z,0
2017-08-13T01:13:40.753Z,0
2017-08-13T01:14:41.326Z,0
2017-08-13T01:15:41.902Z,0
2017-08-13T01:16:42.473Z,0
2017-08-13T01:17:43.047Z,0
2017-08-13T01:18:43.619Z,0
2017-08-13T01:19:44.193Z,0
2017-08-13T01:20:44.766Z,0
2017-08-13T01:21:45.341Z,0
2017-08-13T01:22:45.914Z,0
2017-08-13T01:23:46.488Z,0
2017-08-13T01:24:47.072Z,0
2017-08-13T01:25:47.645Z,0
2017-08-13T01:26:48.221Z,0
2017-08-13T01:27:48.793Z,0
2017-08-13T01:28:49.369Z,0
2017-08-13T01:29:49.956Z,0
2017-08-13T01:30:50.534Z,0
2017-08-13T01:31:51.105Z,0
2017-08-13T01:32:51.679Z,0
2017-08-13T01:33:52.254Z,0
2017-08-13T01:34:52.827Z,0
2017-08-13T01:35:53.401Z,0
2017-08-13T01:36:53.976Z,0
2017-08-13T01:37:54.549Z,0
2017-08-13T01:38:55.123Z,0
2017-08-13T01:39:55.696Z,0
2017-08-13T01:40:56.268Z,0
2017-08-13T01:41:56.843Z,0
2017-08-13T01:42:57.416Z,0
2017-08-13T01:43:57.991Z,0
2017-08-13T01:44:58.565Z,0
2017-08-13T01:45:59.137Z,0
2017-08-13T01:46:59.711Z,0
2017-08-13T01:48:00.292Z,0
2017-08-13T01:49:00.857Z,0
2017-08-13T01:50:01.429Z,0
2017-08-13T01:51:02.003Z,0
2017-08-13T01:52:02.576Z,0
2017-08-13T01:53:03.149Z,0
2017-08-13T01:54:03.722Z,0
2017-08-13T01:55:04.294Z,0
2017-08-13T01:56:04.867Z,0
2017-08-13T01:57:05.452Z,0
2017-08-13T01:58:06.027Z,0
2017-08-13T01:59:06.612Z,0
2017-08-13T02:00:07.185Z,0
2017-08-13T02:01:07.760Z,0
2017-08-13T02:02:08.337Z,0
2017-08-13T02:03:08.905Z,0
2017-08-13T02:04:09.479Z,0
2017-08-13T02:05:10.056Z,0
2017-08-13T02:06:10.625Z,0
2017-08-13T02:07:11.199Z,0
2017-08-13T02:08:11.771Z,0
2017-08-13T02:09:12.345Z,0
2017-08-13T02:10:12.922Z,0
2017-08-13T02:11:13.496Z,0
2017-08-13T02:12:14.071Z,0
2017-08-13T02:13:14.645Z,0
2017-08-13T02:14:15.220Z,0
2017-08-13T02:15:15.795Z,0
2017-08-13T02:16:16.369Z,0
2017-08-13T02:17:16.942Z,0
2017-08-13T02:18:17.520Z,0
2017-08-13T02:19:18.103Z,0
2017-08-13T02:20:18.677Z,0
2017-08-13T02:21:19.252Z,0
2017-08-13T02:22:19.826Z,0
2017-08-13T02:23:20.402Z,0
2017-08-13T02:24:20.976Z,0
2017-08-13T02:25:21.549Z,0
2017-08-13T02:26:22.123Z,0
2017-08-13T02:27:22.698Z,0
2017-08-13T02:28:23.272Z,0
2017-08-13T02:29:23.845Z,0
2017-08-13T02:30:24.432Z,0
2017-08-13T02:31:25.007Z,0
2017-08-13T02:32:25.590Z,0
2017-08-13T02:33:26.163Z,0
2017-08-13T02:34:26.736Z,0
2017-08-13T02:35:27.310Z,0
2017-08-13T02:36:27.889Z,0
2017-08-13T02:37:28.457Z,0
2017-08-13T02:38:29.030Z,0
2017-08-13T02:39:29.604Z,0
2017-08-13T02:40:30.178Z,0
2017-08-13T02:41:30.753Z,0
2017-08-13T02:42:31.327Z,0
2017-08-13T02:43:31.902Z,0
2017-08-13T02:44:32.477Z,0
2017-08-13T02:45:33.053Z,0
2017-08-13T02:46:33.626Z,0
2017-08-13T02:47:34.219Z,0
2017-08-13T02:48:34.775Z,0
2017-08-13T02:49:35.351Z,0
2017-08-13T02:50:35.924Z,0
2017-08-13T02:51:36.497Z,0
2017-08-13T02:52:37.070Z,0
2017-08-13T02:53:37.656Z,0
2017-08-13T02:54:38.231Z,0
2017-08-13T02:55:38.804Z,0
2017-08-13T02:56:39.381Z,0
2017-08-13T02:57:39.964Z,0
2017-08-13T02:58:40.540Z,0
2017-08-13T02:59:41.114Z,0
2017-08-13T03:00:41.688Z,0
2017-08-13T03:01:42.263Z,0
2017-08-13T03:02:42.838Z,0
2017-08-13T03:03:43.413Z,0
2017-08-13T03:04:43.989Z,0
2017-08-13T03:05:44.560Z,0
2017-08-13T03:06:45.134Z,0
2017-08-13T03:07:45.706Z,0
2017-08-13T03:08:46.280Z,0
2017-08-13T03:09:46.854Z,0
2017-08-13T03:10:47.427Z,0
2017-08-13T03:11:48.001Z,0
2017-08-13T03:12:48.576Z,0
2017-08-13T03:13:49.149Z,0
2017-08-13T03:14:49.721Z,0
2017-08-13T03:15:50.296Z,0
2017-08-13T03:16:50.881Z,0
2017-08-13T03:17:51.455Z,0
2017-08-13T03:18:52.031Z,0
2017-08-13T03:19:52.605Z,0
2017-08-13T03:20:53.178Z,0
2017-08-13T03:21:53.751Z,0
2017-08-13T03:22:54.326Z,0
2017-08-13T03:23:54.900Z,0
2017-08-13T03:24:55.472Z,0
2017-08-13T03:25:56.045Z,0
2017-08-13T03:26:56.618Z,0
2017-08-13T03:27:57.192Z,0
2017-08-13T03:28:57.769Z,0
2017-08-13T03:29:58.349Z,0
2017-08-13T03:30:58.923Z,0
2017-08-13T03:31:59.498Z,0
2017-08-13T03:33:00.070Z,0
2017-08-13T03:34:00.654Z,0
2017-08-13T03:35:01.228Z,0
2017-08-13T03:36:01.800Z,0
2017-08-13T03:37:02.374Z,0
2017-08-13T03:38:02.958Z,0
2017-08-13T03:39:03.532Z,0
2017-08-13T03:40:04.105Z,0
2017-08-13T03:41:04.680Z,0
2017-08-13T03:42:05.252Z,0
2017-08-13T03:43:05.825Z,0
2017-08-13T03:44:06.398Z,0
2017-08-13T03:45:06.971Z,0
2017-08-13T03:46:07.544Z,0
2017-08-13T03:47:08.117Z,0
2017-08-13T03:48:08.689Z,0
2017-08-13T03:49:09.263Z,4
2017-08-13T03:50:09.836Z,4
2017-08-13T03:51:10.409Z,0
2017-08-13T03:52:10.995Z,0
2017-08-13T03:53:11.568Z,4
2017-08-13T03:54:12.145Z,0
2017-08-13T03:55:12.730Z,0
2017-08-13T03:56:13.304Z,4
2017-08-13T03:57:13.889Z,4
2017-08-13T03:58:14.463Z,4
2017-08-13T03:59:15.047Z,4
2017-08-13T04:00:15.622Z,4
2017-08-13T04:01:16.195Z,4
2017-08-13T04:02:16.770Z,4
2017-08-13T04:03:17.343Z,4
2017-08-13T04:04:17.916Z,4
2017-08-13T04:05:18.490Z,12
2017-08-13T04:06:19.075Z,8
2017-08-13T04:07:19.649Z,8
2017-08-13T04:08:20.224Z,12
2017-08-13T04:09:20.801Z,12
2017-08-13T04:10:21.372Z,12
2017-08-13T04:11:21.948Z,16
2017-08-13T04:12:22.521Z,16
2017-08-13T04:13:23.095Z,20
2017-08-13T04:14:23.671Z,24
2017-08-13T04:15:24.244Z,20
2017-08-13T04:16:24.817Z,24
2017-08-13T04:17:25.392Z,28
2017-08-13T04:18:25.968Z,28
2017-08-13T04:19:26.543Z,32
2017-08-13T04:20:27.118Z,32
2017-08-13T04:21:27.691Z,36
2017-08-13T04:22:28.265Z,40
2017-08-13T04:23:28.839Z,40
2017-08-13T04:24:29.414Z,44
2017-08-13T04:25:29.988Z,48
2017-08-13T04:26:30.566Z,52
2017-08-13T04:27:31.135Z,56
2017-08-13T04:28:31.712Z,60
2017-08-13T04:29:32.298Z,60
2017-08-13T04:30:32.883Z,64
2017-08-13T04:31:33.456Z,64
2017-08-13T04:32:34.044Z,72
2017-08-13T04:33:34.619Z,76
2017-08-13T04:34:35.195Z,80
2017-08-13T04:35:35.771Z,80
2017-08-13T04:36:36.344Z,84
2017-08-13T04:37:36.919Z,88
2017-08-13T04:38:37.506Z,92
2017-08-13T04:39:38.080Z,92
2017-08-13T04:40:38.657Z,100
2017-08-13T04:41:39.231Z,100
2017-08-13T04:42:39.805Z,104
2017-08-13T04:43:40.381Z,108
2017-08-13T04:44:40.955Z,112
2017-08-13T04:45:41.533Z,116
2017-08-13T04:46:42.107Z,120
2017-08-13T04:47:42.699Z,120
2017-08-13T04:48:43.280Z,128
2017-08-13T04:49:43.854Z,128
2017-08-13T04:50:44.429Z,136
2017-08-13T04:51:45.003Z,136
2017-08-13T04:52:45.580Z,140
2017-08-13T04:53:46.157Z,148
2017-08-13T04:54:46.731Z,148
2017-08-13T04:55:47.310Z,152
2017-08-13T04:56:47.882Z,152
2017-08-13T04:57:48.457Z,156
2017-08-13T04:58:49.031Z,164
2017-08-13T04:59:49.618Z,168
2017-08-13T05:00:50.191Z,168
2017-08-13T05:01:50.765Z,172
2017-08-13T05:02:51.342Z,176
2017-08-13T05:03:51.916Z,180
2017-08-13T05:04:52.492Z,180
2017-08-13T05:05:53.068Z,188
2017-08-13T05:06:53.653Z,192
2017-08-13T05:07:54.229Z,196
2017-08-13T05:08:54.806Z,196
2017-08-13T05:09:55.380Z,204
2017-08-13T05:10:55.956Z,208
2017-08-13T05:11:56.532Z,208
2017-08-13T05:12:57.106Z,208
2017-08-13T05:13:57.681Z,216
2017-08-13T05:14:58.255Z,216
2017-08-13T05:15:58.833Z,220
2017-08-13T05:16:59.410Z,220
2017-08-13T05:17:59.987Z,224
2017-08-13T05:19:00.562Z,224
2017-08-13T05:20:01.140Z,228
2017-08-13T05:21:01.719Z,228
2017-08-13T05:22:02.293Z,232
2017-08-13T05:23:02.871Z,232
2017-08-13T05:24:03.447Z,232
2017-08-13T05:25:04.021Z,236
2017-08-13T05:26:04.598Z,236
2017-08-13T05:27:05.177Z,240
2017-08-13T05:28:05.753Z,244
2017-08-13T05:29:06.329Z,244
2017-08-13T05:30:06.904Z,244
2017-08-13T05:31:07.480Z,248
2017-08-13T05:32:08.058Z,248
2017-08-13T05:33:08.635Z,252
2017-08-13T05:34:09.210Z,252
2017-08-13T05:35:09.786Z,256
2017-08-13T05:36:10.363Z,256
2017-08-13T05:37:10.940Z,260
2017-08-13T05:38:11.519Z,264
2017-08-13T05:39:12.096Z,268
2017-08-13T05:40:12.671Z,268
2017-08-13T05:41:13.248Z,268
2017-08-13T05:42:13.826Z,272
2017-08-13T05:43:14.404Z,276
2017-08-13T05:44:14.980Z,280
2017-08-13T05:45:15.558Z,276
2017-08-13T05:46:16.134Z,280
2017-08-13T05:47:16.713Z,284
2017-08-13T05:48:17.288Z,284
2017-08-13T05:49:17.865Z,284
2017-08-13T05:50:18.445Z,288
2017-08-13T05:51:19.018Z,288
2017-08-13T05:52:19.594Z,292
2017-08-13T05:53:20.173Z,296
2017-08-13T05:54:20.749Z,296
2017-08-13T05:55:21.326Z,300
2017-08-13T05:56:21.901Z,300
2017-08-13T05:57:22.477Z,300
2017-08-13T05:58:23.057Z,304
2017-08-13T05:59:23.645Z,308
2017-08-13T06:00:24.232Z,312
2017-08-13T06:01:24.809Z,312
2017-08-13T06:02:25.386Z,316
2017-08-13T06:03:25.963Z,316
2017-08-13T06:04:26.541Z,320
2017-08-13T06:05:27.117Z,320
2017-08-13T06:06:27.694Z,324
2017-08-13T06:07:28.270Z,328
2017-08-13T06:08:28.848Z,328
2017-08-13T06:09:29.425Z,336
2017-08-13T06:10:30.013Z,336
2017-08-13T06:11:30.590Z,344
2017-08-13T06:12:31.178Z,348
2017-08-13T06:13:31.755Z,352
2017-08-13T06:14:32.334Z,360
2017-08-13T06:15:32.916Z,364
2017-08-13T06:16:33.488Z,364
2017-08-13T06:17:34.065Z,372
2017-08-13T06:18:34.643Z,376
2017-08-13T06:19:35.220Z,376
2017-08-13T06:20:35.802Z,380
2017-08-13T06:21:36.386Z,384
2017-08-13T06:22:36.964Z,388
2017-08-13T06:23:37.542Z,388
2017-08-13T06:24:38.119Z,396
2017-08-13T06:25:38.697Z,396
2017-08-13T06:26:39.276Z,400
2017-08-13T06:27:39.856Z,400
2017-08-13T06:28:40.444Z,404
2017-08-13T06:29:41.023Z,408
2017-08-13T06:30:41.599Z,412
2017-08-13T06:31:42.177Z,412
2017-08-13T06:32:42.757Z,412
2017-08-13T06:33:43.334Z,416
2017-08-13T06:34:43.914Z,416
2017-08-13T06:35:44.491Z,420
2017-08-13T06:36:45.070Z,420
2017-08-13T06:37:45.647Z,428
2017-08-13T06:38:46.225Z,428
2017-08-13T06:39:46.804Z,432
2017-08-13T06:40:47.381Z,432
2017-08-13T06:41:47.960Z,436
2017-08-13T06:42:48.549Z,440
2017-08-13T06:43:49.128Z,436
2017-08-13T06:44:49.703Z,440
2017-08-13T06:45:50.283Z,440
2017-08-13T06:46:50.861Z,440
2017-08-13T06:47:51.442Z,440
2017-08-13T06:48:52.014Z,444
2017-08-13T06:49:52.592Z,448
2017-08-13T06:50:53.171Z,452
2017-08-13T06:51:53.749Z,452
2017-08-13T06:52:54.329Z,456
2017-08-13T06:53:54.906Z,460
2017-08-13T06:54:55.483Z,464
2017-08-13T06:55:56.062Z,464
2017-08-13T06:56:56.641Z,464
2017-08-13T06:57:57.222Z,468
2017-08-13T06:58:57.798Z,472
2017-08-13T06:59:58.385Z,472
2017-08-13T07:00:58.955Z,472
2017-08-13T07:01:59.534Z,476
2017-08-13T07:03:00.112Z,476
2017-08-13T07:04:00.705Z,480
2017-08-13T07:05:01.281Z,480
2017-08-13T07:06:01.860Z,480
2017-08-13T07:07:02.438Z,480
2017-08-13T07:08:03.016Z,484
2017-08-13T07:09:03.596Z,488
2017-08-13T07:10:04.174Z,492
2017-08-13T07:11:04.752Z,492
2017-08-13T07:12:05.329Z,500
2017-08-13T07:13:05.918Z,496
2017-08-13T07:14:06.498Z,496
2017-08-13T07:15:07.075Z,500
2017-08-13T07:16:07.664Z,500
2017-08-13T07:17:08.244Z,500
2017-08-13T07:18:08.822Z,504
2017-08-13T07:19:09.399Z,504
2017-08-13T07:20:09.979Z,508
2017-08-13T07:21:10.571Z,512
2017-08-13T07:22:11.150Z,512
2017-08-13T07:23:11.730Z,516
2017-08-13T07:24:12.309Z,520
2017-08-13T07:25:12.886Z,520
2017-08-13T07:26:13.463Z,520
2017-08-13T07:27:14.042Z,520
2017-08-13T07:28:14.622Z,524
2017-08-13T07:29:15.212Z,524
2017-08-13T07:30:15.792Z,524
2017-08-13T07:31:16.371Z,528
2017-08-13T07:32:16.949Z,528
2017-08-13T07:33:17.527Z,528
2017-08-13T07:34:18.106Z,532
2017-08-13T07:35:18.685Z,536
2017-08-13T07:36:19.266Z,536
2017-08-13T07:37:19.843Z,540
2017-08-13T07:38:20.422Z,540
2017-08-13T07:39:21.003Z,544
2017-08-13T07:40:21.580Z,544
2017-08-13T07:41:22.162Z,548
2017-08-13T07:42:22.739Z,548
2017-08-13T07:43:23.320Z,544
2017-08-13T07:44:23.900Z,548
2017-08-13T07:45:24.491Z,556
2017-08-13T07:46:25.077Z,548
2017-08-13T07:47:25.656Z,552
2017-08-13T07:48:26.233Z,560
2017-08-13T07:49:26.814Z,580
2017-08-13T07:50:27.402Z,584
2017-08-13T07:51:27.980Z,588
2017-08-13T07:52:28.559Z,588
2017-08-13T07:53:29.143Z,572
2017-08-13T07:54:29.718Z,588
2017-08-13T07:55:30.317Z,572
2017-08-13T07:56:30.894Z,576
2017-08-13T07:57:31.473Z,580
2017-08-13T07:58:32.051Z,584
2017-08-13T07:59:32.632Z,592
2017-08-13T08:00:33.211Z,596
2017-08-13T08:01:33.790Z,600
2017-08-13T08:02:34.369Z,612
2017-08-13T08:03:34.960Z,616
2017-08-13T08:04:35.540Z,624
2017-08-13T08:05:36.119Z,624
2017-08-13T08:06:36.702Z,636
2017-08-13T08:07:37.280Z,636
2017-08-13T08:08:37.864Z,620
2017-08-13T08:09:38.437Z,616
2017-08-13T08:10:39.019Z,624
2017-08-13T08:11:39.598Z,580
2017-08-13T08:12:40.179Z,596
2017-08-13T08:13:40.757Z,524
2017-08-13T08:14:41.336Z,532
2017-08-13T08:15:41.916Z,440
2017-08-13T08:16:42.496Z,384
2017-08-13T08:17:43.077Z,424
2017-08-13T08:18:43.657Z,364
2017-08-13T08:19:44.248Z,360
2017-08-13T08:20:44.826Z,364
2017-08-13T08:21:45.419Z,368
2017-08-13T08:22:45.997Z,364
2017-08-13T08:23:46.576Z,372
2017-08-13T08:24:47.155Z,356
2017-08-13T08:25:47.734Z,456
2017-08-13T08:26:48.325Z,624
2017-08-13T08:27:48.917Z,632
2017-08-13T08:28:49.496Z,632
2017-08-13T08:29:50.075Z,628
2017-08-13T08:30:50.657Z,620
2017-08-13T08:31:51.235Z,620
2017-08-13T08:32:51.814Z,620
2017-08-13T08:33:52.392Z,628
2017-08-13T08:34:52.973Z,620
2017-08-13T08:35:53.563Z,636
2017-08-13T08:36:54.152Z,632
2017-08-13T08:37:54.732Z,648
2017-08-13T08:38:55.311Z,628
2017-08-13T08:39:55.890Z,600
2017-08-13T08:40:56.473Z,608
2017-08-13T08:41:57.051Z,652
2017-08-13T08:42:57.630Z,660
2017-08-13T08:43:58.209Z,588
2017-08-13T08:44:58.800Z,472
2017-08-13T08:45:59.379Z,364
2017-08-13T08:46:59.957Z,360
2017-08-13T08:48:00.537Z,588
2017-08-13T08:49:01.118Z,420
2017-08-13T08:50:01.697Z,648
2017-08-13T08:51:02.276Z,660
2017-08-13T08:52:02.855Z,660
2017-08-13T08:53:03.435Z,656
2017-08-13T08:54:04.027Z,664
2017-08-13T08:55:04.606Z,676
2017-08-13T08:56:05.187Z,680
2017-08-13T08:57:05.766Z,696
2017-08-13T08:58:06.347Z,616
2017-08-13T08:59:06.927Z,652
2017-08-13T09:00:07.506Z,708
2017-08-13T09:01:08.086Z,652
2017-08-13T09:02:08.665Z,708
2017-08-13T09:03:09.244Z,704
2017-08-13T09:04:09.823Z,628
2017-08-13T09:05:10.402Z,424
2017-08-13T09:06:10.981Z,656
2017-08-13T09:07:11.561Z,728
2017-08-13T09:08:12.150Z,724
2017-08-13T09:09:12.732Z,732
2017-08-13T09:10:13.311Z,748
2017-08-13T09:11:13.893Z,756
2017-08-13T09:12:14.471Z,780
2017-08-13T09:13:15.051Z,792
2017-08-13T09:14:15.631Z,784
2017-08-13T09:15:16.213Z,792
2017-08-13T09:16:16.793Z,812
2017-08-13T09:17:17.372Z,832
2017-08-13T09:18:17.951Z,844
2017-08-13T09:19:18.533Z,856
2017-08-13T09:20:19.123Z,864
2017-08-13T09:21:19.703Z,880
2017-08-13T09:22:20.289Z,900
2017-08-13T09:23:20.863Z,916
2017-08-13T09:24:21.443Z,916
2017-08-13T09:25:22.022Z,940
2017-08-13T09:26:22.605Z,876
2017-08-13T09:27:23.185Z,936
2017-08-13T09:28:23.764Z,932
2017-08-13T09:29:24.357Z,936
2017-08-13T09:30:24.940Z,928
2017-08-13T09:31:25.529Z,964
2017-08-13T09:32:26.108Z,956
2017-08-13T09:33:26.690Z,952
2017-08-13T09:34:27.269Z,932
2017-08-13T09:35:27.861Z,912
2017-08-13T09:36:28.445Z,616
2017-08-13T09:37:29.035Z,916
2017-08-13T09:38:29.628Z,928
2017-08-13T09:39:30.208Z,956
2017-08-13T09:40:30.789Z,996
2017-08-13T09:41:31.370Z,1044
2017-08-13T09:42:31.951Z,1072
2017-08-13T09:43:32.535Z,1072
2017-08-13T09:44:33.127Z,1068
2017-08-13T09:45:33.709Z,732
2017-08-13T09:46:34.296Z,732
2017-08-13T09:47:34.871Z,764
2017-08-13T09:48:35.463Z,736
2017-08-13T09:49:36.045Z,736
2017-08-13T09:50:36.624Z,744
2017-08-13T09:51:37.205Z,764
2017-08-13T09:52:37.791Z,1092
2017-08-13T09:53:38.368Z,1096
2017-08-13T09:54:38.948Z,1084
2017-08-13T09:55:39.528Z,764
2017-08-13T09:56:40.122Z,876
2017-08-13T09:57:40.703Z,740
2017-08-13T09:58:41.285Z,728
2017-08-13T09:59:41.867Z,732
2017-08-13T10:00:42.446Z,736
2017-08-13T10:01:43.040Z,1040
2017-08-13T10:02:43.620Z,668
2017-08-13T10:03:44.200Z,616
2017-08-13T10:04:44.793Z,592
2017-08-13T10:05:45.373Z,588
2017-08-13T10:06:45.953Z,592
2017-08-13T10:07:46.535Z,588
2017-08-13T10:08:47.115Z,580
2017-08-13T10:09:47.698Z,576
2017-08-13T10:10:48.278Z,620
2017-08-13T10:11:48.859Z,520
2017-08-13T10:12:49.440Z,484
2017-08-13T10:13:50.019Z,432
2017-08-13T10:14:50.599Z,396
2017-08-13T10:15:51.180Z,360
2017-08-13T10:16:51.759Z,340
2017-08-13T10:17:52.341Z,328
2017-08-13T10:18:52.926Z,328
2017-08-13T10:19:53.504Z,340
2017-08-13T10:20:54.084Z,368
2017-08-13T10:21:54.662Z,404
2017-08-13T10:22:55.246Z,456
2017-08-13T10:23:55.825Z,508
2017-08-13T10:24:56.404Z,556
2017-08-13T10:25:56.984Z,600
2017-08-13T10:26:57.562Z,636
2017-08-13T10:27:58.144Z,668
2017-08-13T10:28:58.725Z,684
2017-08-13T10:29:59.306Z,692
2017-08-13T10:30:59.886Z,684
2017-08-13T10:32:00.465Z,688
2017-08-13T10:33:01.047Z,692
2017-08-13T10:34:01.626Z,716
2017-08-13T10:35:02.206Z,728
2017-08-13T10:36:02.786Z,724
2017-08-13T10:37:03.365Z,720
2017-08-13T10:38:03.947Z,744
2017-08-13T10:39:04.538Z,740
2017-08-13T10:40:05.119Z,808
2017-08-13T10:41:05.706Z,720
2017-08-13T10:42:06.279Z,724
2017-08-13T10:43:06.860Z,704
2017-08-13T10:44:07.438Z,716
2017-08-13T10:45:08.019Z,740
2017-08-13T10:46:08.600Z,776
2017-08-13T10:47:09.179Z,804
2017-08-13T10:48:09.760Z,812
2017-08-13T10:49:10.340Z,752
2017-08-13T10:50:10.922Z,748
2017-08-13T10:51:11.513Z,724
2017-08-13T10:52:12.093Z,720
2017-08-13T10:53:12.674Z,740
2017-08-13T10:54:13.256Z,756
2017-08-13T10:55:13.835Z,720
2017-08-13T10:56:14.416Z,688
2017-08-13T10:57:14.997Z,700
2017-08-13T10:58:15.580Z,640
2017-08-13T10:59:16.159Z,620
2017-08-13T11:00:16.751Z,648
2017-08-13T11:01:17.331Z,988
2017-08-13T11:02:17.912Z,1020
2017-08-13T11:03:18.493Z,1028
2017-08-13T11:04:19.079Z,1044
2017-08-13T11:05:19.658Z,1052
2017-08-13T11:06:20.236Z,768
2017-08-13T11:07:20.814Z,984
2017-08-13T11:08:21.392Z,764
2017-08-13T11:09:21.974Z,752
2017-08-13T11:10:22.556Z,1092
2017-08-13T11:11:23.135Z,852
2017-08-13T11:12:23.716Z,1036
2017-08-13T11:13:24.299Z,748
2017-08-13T11:14:24.879Z,724
2017-08-13T11:15:25.472Z,672
2017-08-13T11:16:26.053Z,1028
2017-08-13T11:17:26.633Z,700
2017-08-13T11:18:27.214Z,824
2017-08-13T11:19:27.795Z,748
2017-08-13T11:20:28.374Z,656
2017-08-13T11:21:28.956Z,644
2017-08-13T11:22:29.535Z,636
2017-08-13T11:23:30.116Z,692
2017-08-13T11:24:30.698Z,760
2017-08-13T11:25:31.275Z,640
2017-08-13T11:26:31.857Z,688
2017-08-13T11:27:32.438Z,752
2017-08-13T11:28:33.019Z,1000
2017-08-13T11:29:33.599Z,992
2017-08-13T11:30:34.179Z,984
2017-08-13T11:31:34.760Z,976
2017-08-13T11:32:35.338Z,972
2017-08-13T11:33:35.920Z,772
2017-08-13T11:34:36.499Z,936
2017-08-13T11:35:37.080Z,952
2017-08-13T11:36:37.662Z,960
2017-08-13T11:37:38.241Z,964
2017-08-13T11:38:38.821Z,968
2017-08-13T11:39:39.400Z,972
2017-08-13T11:40:39.979Z,984
2017-08-13T11:41:40.562Z,984
2017-08-13T11:42:41.141Z,960
2017-08-13T11:43:41.723Z,872
2017-08-13T11:44:42.304Z,1032
2017-08-13T11:45:42.885Z,1056
2017-08-13T11:46:43.467Z,1072
2017-08-13T11:47:44.048Z,1092
2017-08-13T11:48:44.631Z,1112
2017-08-13T11:49:45.211Z,1120
2017-08-13T11:50:45.797Z,1116
2017-08-13T11:51:46.376Z,1116
2017-08-13T11:52:46.957Z,1144
2017-08-13T11:53:47.539Z,1144
2017-08-13T11:54:48.119Z,868
2017-08-13T11:55:48.700Z,928
2017-08-13T11:56:49.281Z,956
2017-08-13T11:57:49.861Z,904
2017-08-13T11:58:50.441Z,888
2017-08-13T11:59:51.023Z,904
2017-08-13T12:00:51.602Z,932
2017-08-13T12:01:52.185Z,1004
2017-08-13T12:02:52.765Z,1156
2017-08-13T12:03:53.347Z,1096
2017-08-13T12:04:53.931Z,1076
2017-08-13T12:05:54.515Z,1060
2017-08-13T12:06:55.093Z,1032
2017-08-13T12:07:55.677Z,1236
2017-08-13T12:08:56.258Z,1312
2017-08-13T12:09:56.840Z,1292
2017-08-13T12:10:57.420Z,1280
2017-08-13T12:11:58.013Z,1280
2017-08-13T12:12:58.593Z,1320
2017-08-13T12:13:59.191Z,1020
2017-08-13T12:14:59.767Z,1320
2017-08-13T12:16:00.348Z,1316
2017-08-13T12:17:00.929Z,948
2017-08-13T12:18:01.511Z,940
2017-08-13T12:19:02.094Z,1016
2017-08-13T12:20:02.689Z,1028
2017-08-13T12:21:03.270Z,1048
2017-08-13T12:22:03.850Z,916
2017-08-13T12:23:04.432Z,872
2017-08-13T12:24:05.012Z,864
2017-08-13T12:25:05.594Z,744
2017-08-13T12:26:06.188Z,664
2017-08-13T12:27:06.768Z,576
2017-08-13T12:28:07.349Z,508
2017-08-13T12:29:07.928Z,464
2017-08-13T12:30:08.509Z,456
2017-08-13T12:31:09.091Z,460
2017-08-13T12:32:09.670Z,456
2017-08-13T12:33:10.252Z,448
2017-08-13T12:34:10.846Z,444
2017-08-13T12:35:11.462Z,452
2017-08-13T12:36:12.042Z,452
2017-08-13T12:37:12.622Z,444
2017-08-13T12:38:13.202Z,440
2017-08-13T12:39:13.784Z,440
2017-08-13T12:40:14.364Z,444
2017-08-13T12:41:14.947Z,452
2017-08-13T12:42:15.541Z,424
2017-08-13T12:43:16.120Z,408
2017-08-13T12:44:16.699Z,400
2017-08-13T12:45:17.279Z,400
2017-08-13T12:46:17.858Z,408
2017-08-13T12:47:18.440Z,424
2017-08-13T12:48:19.019Z,444
2017-08-13T12:49:19.601Z,464
2017-08-13T12:50:20.180Z,476
2017-08-13T12:51:20.772Z,480
2017-08-13T12:52:21.352Z,480
2017-08-13T12:53:21.932Z,484
2017-08-13T12:54:22.512Z,488
2017-08-13T12:55:23.092Z,496
2017-08-13T12:56:23.672Z,504
2017-08-13T12:57:24.253Z,516
2017-08-13T12:58:24.832Z,536
2017-08-13T12:59:25.412Z,564
2017-08-13T13:00:25.994Z,596
2017-08-13T13:01:26.572Z,632
2017-08-13T13:02:27.154Z,668
2017-08-13T13:03:27.734Z,712
2017-08-13T13:04:28.314Z,772
2017-08-13T13:05:28.895Z,844
2017-08-13T13:06:29.474Z,940
2017-08-13T13:07:30.057Z,1088
2017-08-13T13:08:30.636Z,1424
2017-08-13T13:09:31.216Z,1424
2017-08-13T13:10:31.797Z,1388
2017-08-13T13:11:32.378Z,1360
2017-08-13T13:12:32.959Z,1332
2017-08-13T13:13:33.541Z,1264
2017-08-13T13:14:34.120Z,892
2017-08-13T13:15:34.704Z,1196
2017-08-13T13:16:35.301Z,1236
2017-08-13T13:17:35.879Z,1268
2017-08-13T13:18:36.473Z,1248
2017-08-13T13:19:37.055Z,1156
2017-08-13T13:20:37.634Z,832
2017-08-13T13:21:38.219Z,768
2017-08-13T13:22:38.796Z,740
2017-08-13T13:23:39.376Z,720
2017-08-13T13:24:39.956Z,740
2017-08-13T13:25:40.535Z,720
2017-08-13T13:26:41.115Z,672
2017-08-13T13:27:41.698Z,636
2017-08-13T13:28:42.277Z,608
2017-08-13T13:29:42.858Z,600
2017-08-13T13:30:43.439Z,592
2017-08-13T13:31:44.018Z,588
2017-08-13T13:32:44.610Z,600
2017-08-13T13:33:45.190Z,616
2017-08-13T13:34:45.769Z,632
2017-08-13T13:35:46.352Z,652
2017-08-13T13:36:46.931Z,676
2017-08-13T13:37:47.511Z,716
2017-08-13T13:38:48.089Z,760
2017-08-13T13:39:48.669Z,820
2017-08-13T13:40:49.250Z,884
2017-08-13T13:41:49.831Z,944
2017-08-13T13:42:50.413Z,1040
2017-08-13T13:43:50.994Z,1016
2017-08-13T13:44:51.574Z,1004
2017-08-13T13:45:52.155Z,992
2017-08-13T13:46:52.735Z,992
2017-08-13T13:47:53.317Z,1024
2017-08-13T13:48:53.898Z,1072
2017-08-13T13:49:54.491Z,988
2017-08-13T13:50:55.085Z,936
2017-08-13T13:51:55.664Z,920
2017-08-13T13:52:56.245Z,928
2017-08-13T13:53:56.825Z,944
2017-08-13T13:54:57.407Z,964
2017-08-13T13:55:57.986Z,956
2017-08-13T13:56:58.567Z,940
2017-08-13T13:57:59.148Z,916
2017-08-13T13:58:59.728Z,872
2017-08-13T14:00:00.310Z,852
2017-08-13T14:01:00.890Z,844
2017-08-13T14:02:01.468Z,848
2017-08-13T14:03:02.048Z,872
2017-08-13T14:04:02.629Z,944
2017-08-13T14:05:03.215Z,972
2017-08-13T14:06:03.806Z,980
2017-08-13T14:07:04.383Z,980
2017-08-13T14:08:04.965Z,1012
2017-08-13T14:09:05.545Z,1048
2017-08-13T14:10:06.126Z,1044